Time;durP1;ratioP1;P1;durP2;ratioP2;P2;SDS_P1;SDS_P2;PMS_P1;PMS_P2;Temp;Humidity;BMP_temperature;BMP_pressure;BME280_temperature;BME280_humidity;BME280_pressure;Samples;Min_cycle;Max_cycle;Signal;HPM_P1;HPM_P2
2024/01/02 00:01:20;;;;;;;19.35;6.10;;;5.00;99.90;;;;;;5147326;27;20046;-76
2024/01/02 00:03:48;;;;;;;24.25;6.05;;;6.00;99.90;;;;;;5127527;27;20549;-77
2024/01/02 00:06:15;;;;;;;22.55;6.20;;;5.00;99.90;;;;;;5130556;27;20047;-77
2024/01/02 00:08:41;;;;;;;23.25;6.32;;;5.00;99.90;;;;;;5138001;27;20043;-77
2024/01/02 00:11:07;;;;;;;26.67;5.53;;;5.10;99.90;;;;;;5127818;27;20496;-77
2024/01/02 00:13:33;;;;;;;14.15;5.25;;;5.00;99.90;;;;;;5164570;27;20539;-76
2024/01/02 00:15:59;;;;;;;25.13;6.45;;;5.10;99.90;;;;;;5139907;27;20035;-75
2024/01/02 00:18:25;;;;;;;24.58;6.53;;;5.00;99.90;;;;;;5127019;27;20115;-76
2024/01/02 00:20:50;;;;;;;18.67;5.82;;;5.10;99.90;;;;;;5149269;27;20038;-77
2024/01/02 00:23:16;;;;;;;20.38;5.25;;;5.10;99.90;;;;;;5146628;27;20082;-77
2024/01/02 00:25:42;;;;;;;17.27;6.03;;;5.10;99.90;;;;;;5140328;27;20032;-77
2024/01/02 00:28:09;;;;;;;18.58;5.07;;;5.00;99.90;;;;;;5144055;27;20050;-77
2024/01/02 00:30:35;;;;;;;29.65;6.30;;;5.10;99.90;;;;;;5150908;27;20064;-79
2024/01/02 00:33:03;;;;;;;23.27;6.45;;;5.10;99.90;;;;;;5128845;27;20043;-77
2024/01/02 00:35:29;;;;;;;;;;;5.10;99.90;;;;;;5129057;27;20142;-78
2024/01/02 00:37:55;;;;;;;23.45;6.47;;;5.10;99.90;;;;;;5144476;27;19962;-78
2024/01/02 00:40:21;;;;;;;20.85;5.82;;;5.30;99.90;;;;;;5152457;27;20094;-77
2024/01/02 00:42:46;;;;;;;26.95;7.18;;;5.10;99.90;;;;;;5122030;27;20536;-77
2024/01/02 00:45:12;;;;;;;23.50;6.25;;;5.10;99.90;;;;;;5129894;27;20050;-76
2024/01/02 00:47:37;;;;;;;16.58;5.55;;;5.10;99.90;;;;;;5155193;27;20370;-75
2024/01/02 00:50:04;;;;;;;20.95;6.03;;;5.10;99.90;;;;;;5124206;27;20447;-78
2024/01/02 00:52:31;;;;;;;24.33;5.60;;;5.10;99.90;;;;;;5151881;27;20054;-77
2024/01/02 00:54:56;;;;;;;20.65;5.00;;;5.10;99.90;;;;;;5140125;27;20039;-78
2024/01/02 00:57:22;;;;;;;26.13;6.03;;;5.20;99.90;;;;;;5128866;27;20034;-77
2024/01/02 00:59:48;;;;;;;23.25;5.75;;;5.10;99.90;;;;;;5133068;27;20043;-77
2024/01/02 01:02:13;;;;;;;13.70;5.50;;;5.10;99.90;;;;;;5155793;27;20123;-77
2024/01/02 01:04:46;;;;;;;23.67;5.82;;;5.20;99.90;;;;;;5152838;27;20497;-76
2024/01/02 01:07:15;;;;;;;15.52;5.13;;;4.90;99.90;;;;;;5145257;27;20118;-77
2024/01/02 01:09:41;;;;;;;18.13;5.80;;;5.20;99.90;;;;;;5140202;27;20043;-77
2024/01/02 01:12:08;;;;;;;18.95;5.45;;;5.20;99.90;;;;;;5158611;27;20449;-77
2024/01/02 01:14:33;;;;;;;24.55;5.32;;;5.20;99.90;;;;;;5126581;27;20053;-78
2024/01/02 01:16:59;;;;;;;19.23;4.30;;;5.20;99.90;;;;;;5154672;27;20035;-78
2024/01/02 01:19:25;;;;;;;19.92;5.40;;;5.20;99.90;;;;;;5144346;27;20440;-79
2024/01/02 01:21:51;;;;;;;22.85;4.40;;;5.20;99.90;;;;;;5147053;27;20047;-79
2024/01/02 01:24:17;;;;;;;20.85;5.38;;;5.30;99.90;;;;;;5156439;27;20041;-77
2024/01/02 01:26:46;;;;;;;15.98;4.30;;;5.30;99.90;;;;;;5141363;27;20047;-77
2024/01/02 01:29:12;;;;;;;15.50;4.47;;;5.40;99.90;;;;;;5126637;27;20050;-80
2024/01/02 01:31:38;;;;;;;18.63;4.55;;;5.30;99.90;;;;;;5120435;27;20518;-79
2024/01/02 01:34:04;;;;;;;18.65;4.68;;;5.30;99.90;;;;;;5139818;27;20035;-78
2024/01/02 01:36:29;;;;;;;19.85;4.95;;;5.30;99.90;;;;;;5146294;27;20033;-79
2024/01/02 01:38:57;;;;;;;20.80;4.65;;;6.30;99.90;;;;;;5137734;27;20089;-80
2024/01/02 01:41:23;;;;;;;20.45;4.78;;;6.20;99.90;;;;;;5135393;27;20199;-79
2024/01/02 01:43:49;;;;;;;21.33;4.72;;;5.40;99.90;;;;;;5117128;27;20055;-79
2024/01/02 01:46:15;;;;;;;23.23;4.90;;;5.40;99.90;;;;;;5140044;27;20035;-79
2024/01/02 01:48:42;;;;;;;24.25;5.20;;;6.30;99.90;;;;;;5135984;27;20145;-79
2024/01/02 01:51:10;;;;;;;14.68;4.60;;;5.40;99.90;;;;;;5160148;27;20380;-79
2024/01/02 01:53:38;;;;;;;21.23;5.35;;;5.20;99.90;;;;;;5134406;27;20054;-79
2024/01/02 01:56:04;;;;;;;23.27;4.33;;;5.40;99.90;;;;;;5122839;27;20051;-78
2024/01/02 01:58:31;;;;;;;28.10;4.22;;;5.50;99.90;;;;;;5130227;27;20798;-78
2024/01/02 02:00:57;;;;;;;29.57;5.03;;;5.40;99.90;;;;;;5135321;27;20059;-78
2024/01/02 02:03:28;;;;;;;25.33;5.07;;;5.50;99.90;;;;;;5143981;27;20044;-79
2024/01/02 02:05:53;;;;;;;20.98;4.43;;;5.50;99.90;;;;;;5142760;27;20381;-79
2024/01/02 02:08:19;;;;;;;26.45;5.07;;;6.10;99.90;;;;;;5137496;27;20050;-78
2024/01/02 02:10:45;;;;;;;17.17;4.95;;;5.50;99.90;;;;;;5151633;27;20038;-79
2024/01/02 02:13:11;;;;;;;22.67;5.30;;;5.40;99.90;;;;;;5119732;27;20038;-80
2024/01/02 02:15:40;;;;;;;26.48;5.80;;;5.60;99.90;;;;;;5132969;27;20039;-79
2024/01/02 02:18:06;;;;;;;26.10;6.10;;;5.50;99.90;;;;;;5153186;27;20073;-78
2024/01/02 02:20:32;;;;;;;15.15;5.32;;;5.50;99.90;;;;;;5123355;27;20035;-79
2024/01/02 02:23:00;;;;;;;19.02;6.10;;;5.50;99.90;;;;;;5136789;27;20410;-78
2024/01/02 02:25:27;;;;;;;26.25;6.57;;;5.50;99.90;;;;;;5136415;27;20035;-79
2024/01/02 02:27:54;;;;;;;23.67;6.30;;;5.60;99.90;;;;;;5148056;27;20062;-78
2024/01/02 02:30:19;;;;;;;28.38;6.70;;;5.60;99.90;;;;;;5148219;27;20091;-77
2024/01/02 02:32:46;;;;;;;23.38;7.93;;;5.50;99.90;;;;;;5171017;27;20039;-78
2024/01/02 02:35:12;;;;;;;21.52;6.57;;;5.60;99.90;;;;;;5162059;27;20039;-78
2024/01/02 02:37:39;;;;;;;27.63;7.38;;;5.50;99.90;;;;;;5151145;27;20052;-78
2024/01/02 02:40:05;;;;;;;26.27;8.07;;;5.60;99.90;;;;;;5152076;27;20032;-79
2024/01/02 02:42:31;;;;;;;25.75;7.35;;;5.60;99.90;;;;;;5144760;27;20072;-78
2024/01/02 02:44:59;;;;;;;21.67;7.75;;;5.50;99.90;;;;;;5145362;27;20043;-76
2024/01/02 02:47:24;;;;;;;26.70;8.05;;;5.70;99.90;;;;;;5131746;27;20039;-79
2024/01/02 02:49:51;;;;;;;31.45;9.35;;;5.50;99.90;;;;;;5155212;27;20033;-78
2024/01/02 02:52:20;;;;;;;30.08;10.02;;;5.50;99.90;;;;;;5147010;27;20043;-78
2024/01/02 02:54:45;;;;;;;;;;;5.50;99.90;;;;;;5154047;27;20047;-78
2024/01/02 02:57:12;;;;;;;36.40;12.50;;;5.50;99.90;;;;;;5134491;27;19923;-79
2024/01/02 02:59:37;;;;;;;31.80;11.68;;;5.70;99.90;;;;;;5130918;27;20103;-80
2024/01/02 03:02:05;;;;;;;31.48;12.93;;;5.70;99.90;;;;;;5126043;27;20110;-79
2024/01/02 03:04:33;;;;;;;31.13;12.33;;;5.70;99.90;;;;;;5148105;27;20034;-78
2024/01/02 03:06:59;;;;;;;35.00;12.15;;;5.70;99.90;;;;;;5150250;27;20637;-78
2024/01/02 03:09:25;;;;;;;28.70;12.48;;;6.20;99.90;;;;;;5122645;28;20039;-80
2024/01/02 03:11:51;;;;;;;27.85;13.02;;;5.70;99.90;;;;;;5141072;27;20074;-79
2024/01/02 03:14:18;;;;;;;35.17;14.30;;;5.60;99.90;;;;;;5152945;27;20079;-79
2024/01/02 03:16:43;;;;;;;28.08;12.63;;;5.70;99.90;;;;;;5155072;27;20039;-79
2024/01/02 03:19:09;;;;;;;30.63;13.13;;;5.80;99.90;;;;;;5135211;27;20073;-79
2024/01/02 03:21:34;;;;;;;35.03;13.27;;;6.40;99.90;;;;;;5137869;27;20043;-78
2024/01/02 03:24:02;;;;;;;33.85;13.93;;;5.80;99.90;;;;;;5133056;27;20047;-79
2024/01/02 03:26:28;;;;;;;28.92;12.77;;;5.60;99.90;;;;;;5138001;27;20500;-78
2024/01/02 03:28:54;;;;;;;33.45;12.45;;;5.80;99.90;;;;;;5134131;27;20047;-79
2024/01/02 03:31:20;;;;;;;33.72;11.98;;;5.70;99.90;;;;;;5127849;27;20106;-79
2024/01/02 03:33:47;;;;;;;35.83;14.70;;;5.70;99.90;;;;;;5125334;27;20043;-78
2024/01/02 03:36:18;;;;;;;37.78;14.10;;;5.60;99.90;;;;;;5128536;27;20104;-79
2024/01/02 03:38:45;;;;;;;27.92;13.93;;;5.80;99.90;;;;;;5142130;27;20050;-78
2024/01/02 03:41:10;;;;;;;30.42;12.40;;;5.70;99.90;;;;;;5164554;27;20103;-79
2024/01/02 03:43:36;;;;;;;33.88;14.00;;;6.10;99.90;;;;;;5153721;27;20500;-78
2024/01/02 03:46:02;;;;;;;38.83;14.30;;;5.80;99.90;;;;;;5137037;27;20498;-77
2024/01/02 03:48:30;;;;;;;36.92;13.95;;;5.80;99.90;;;;;;5134938;27;20461;-79
2024/01/02 03:50:56;;;;;;;;;;;5.80;99.90;;;;;;5138783;27;20051;-79
2024/01/02 03:53:21;;;;;;;32.42;13.85;;;5.70;99.90;;;;;;5131355;27;19919;-79
2024/01/02 03:55:47;;;;;;;35.17;12.55;;;5.80;99.90;;;;;;5138288;27;20042;-78
2024/01/02 03:58:13;;;;;;;34.50;12.57;;;7.00;99.90;;;;;;5158384;27;20039;-79
2024/01/02 04:00:39;;;;;;;28.45;10.65;;;5.80;99.90;;;;;;5137371;27;20046;-78
2024/01/02 04:03:06;;;;;;;25.67;9.98;;;5.70;99.90;;;;;;5130064;27;20528;-79
2024/01/02 04:05:32;;;;;;;22.77;9.45;;;5.70;99.90;;;;;;5129341;27;20128;-79
2024/01/02 04:08:00;;;;;;;26.65;10.27;;;6.00;99.90;;;;;;5148696;27;20091;-79
2024/01/02 04:10:26;;;;;;;23.67;9.48;;;5.70;99.90;;;;;;5131581;27;20069;-78
2024/01/02 04:12:52;;;;;;;21.40;9.40;;;5.80;99.90;;;;;;5145291;27;20401;-78
2024/01/02 04:15:17;;;;;;;27.42;10.02;;;5.90;99.90;;;;;;5146047;27;20035;-78
2024/01/02 04:17:43;;;;;;;29.90;11.52;;;5.70;99.90;;;;;;5144516;27;20039;-79
2024/01/02 04:20:09;;;;;;;24.63;11.00;;;5.80;99.90;;;;;;5161973;27;20074;-79
2024/01/02 04:22:35;;;;;;;25.92;11.40;;;5.80;99.90;;;;;;5164014;27;20035;-79
2024/01/02 04:25:04;;;;;;;31.67;11.55;;;5.80;99.90;;;;;;5150955;27;20047;-77
2024/01/02 04:27:29;;;;;;;27.25;10.07;;;5.90;99.90;;;;;;5134369;27;20115;-77
2024/01/02 04:29:58;;;;;;;26.60;10.02;;;5.90;99.90;;;;;;5138911;27;20070;-77
2024/01/02 04:32:27;;;;;;;26.30;9.10;;;5.80;99.90;;;;;;5127863;27;20604;-78
2024/01/02 04:34:53;;;;;;;24.10;8.73;;;5.80;99.90;;;;;;5132079;27;20096;-79
2024/01/02 04:37:19;;;;;;;24.05;9.85;;;5.90;99.90;;;;;;5162590;27;20400;-77
2024/01/02 04:39:45;;;;;;;19.65;9.32;;;5.90;99.90;;;;;;5131147;27;20074;-77
2024/01/02 04:42:10;;;;;;;26.70;9.20;;;5.80;99.90;;;;;;5138573;27;20084;-75
2024/01/02 04:44:36;;;;;;;20.98;9.07;;;5.90;99.90;;;;;;5116087;27;20050;-77
2024/01/02 04:47:02;;;;;;;21.85;9.13;;;6.10;99.90;;;;;;5128241;27;20090;-75
2024/01/02 04:49:28;;;;;;;23.20;9.25;;;5.70;99.90;;;;;;5145473;27;20441;-76
2024/01/02 04:51:54;;;;;;;23.50;9.93;;;5.80;99.90;;;;;;5135198;27;20477;-76
2024/01/02 04:54:20;;;;;;;30.27;9.60;;;5.80;99.90;;;;;;5136011;27;20099;-76
2024/01/02 04:56:46;;;;;;;25.33;10.45;;;5.90;99.90;;;;;;5133468;27;20600;-76
2024/01/02 04:59:11;;;;;;;25.52;9.93;;;5.80;99.90;;;;;;5132022;27;20051;-77
2024/01/02 05:01:37;;;;;;;26.25;9.90;;;6.20;99.90;;;;;;5149480;27;20126;-77
2024/01/02 05:04:04;;;;;;;15.40;9.07;;;5.80;99.90;;;;;;5159135;27;20045;-76
2024/01/02 05:06:30;;;;;;;29.60;10.80;;;5.80;99.90;;;;;;5140022;27;20026;-78
2024/01/02 05:08:56;;;;;;;24.20;10.05;;;5.90;99.90;;;;;;5155702;27;20031;-76
2024/01/02 05:11:22;;;;;;;24.35;10.57;;;5.90;99.90;;;;;;5137477;27;20541;-81
2024/01/02 05:13:48;;;;;;;26.25;10.02;;;5.90;99.90;;;;;;5112927;27;20523;-76
2024/01/02 05:16:14;;;;;;;32.40;11.35;;;5.90;99.90;;;;;;5147018;27;20078;-76
2024/01/02 05:18:40;;;;;;;25.95;8.32;;;5.90;99.90;;;;;;5146536;27;20031;-75
2024/01/02 05:21:07;;;;;;;18.60;8.40;;;5.90;99.90;;;;;;5140985;27;20042;-75
2024/01/02 05:23:33;;;;;;;30.17;9.32;;;5.90;99.90;;;;;;5140544;27;20039;-75
2024/01/02 05:25:59;;;;;;;16.70;8.50;;;5.90;99.90;;;;;;5122302;27;20051;-76
2024/01/02 05:28:25;;;;;;;18.58;7.47;;;5.90;99.90;;;;;;5120780;27;20031;-75
2024/01/02 05:30:50;;;;;;;17.23;6.38;;;5.80;99.90;;;;;;5137856;27;20051;-76
2024/01/02 05:33:16;;;;;;;15.05;7.13;;;5.80;99.90;;;;;;5109700;27;20039;-77
2024/01/02 05:35:41;;;;;;;17.58;6.78;;;5.80;99.90;;;;;;5139160;27;20041;-77
2024/01/02 05:38:07;;;;;;;20.27;7.13;;;5.90;99.90;;;;;;5142676;27;20472;-76
2024/01/02 05:40:33;;;;;;;19.73;7.50;;;5.80;99.90;;;;;;5131485;27;20450;-76
2024/01/02 05:43:01;;;;;;;17.77;5.90;;;5.80;99.90;;;;;;5144287;27;20464;-76
2024/01/02 05:45:26;;;;;;;16.80;6.57;;;5.80;99.90;;;;;;5143057;27;20053;-74
2024/01/02 05:47:52;;;;;;;20.92;6.72;;;5.90;99.90;;;;;;5140872;27;20039;-76
2024/01/02 05:50:17;;;;;;;23.70;7.43;;;5.90;99.90;;;;;;5156709;27;20392;-76
2024/01/02 05:52:43;;;;;;;13.25;6.65;;;5.90;99.90;;;;;;5154957;27;20039;-76
2024/01/02 05:55:09;;;;;;;24.20;8.05;;;5.90;99.90;;;;;;5149229;27;20135;-75
2024/01/02 05:57:35;;;;;;;11.85;6.10;;;5.80;99.90;;;;;;5150575;27;20097;-78
2024/01/02 06:00:04;;;;;;;12.73;5.90;;;5.80;99.90;;;;;;5155080;27;20035;-78
2024/01/02 06:02:30;;;;;;;14.02;5.93;;;6.00;99.90;;;;;;5119903;27;20092;-78
2024/01/02 06:04:55;;;;;;;12.35;6.38;;;5.80;99.90;;;;;;5122243;27;20039;-77
2024/01/02 06:07:21;;;;;;;14.93;6.97;;;5.80;99.90;;;;;;5141951;27;20083;-78
2024/01/02 06:09:46;;;;;;;11.77;5.38;;;6.00;99.90;;;;;;5152870;27;20082;-77
2024/01/02 06:12:12;;;;;;;14.77;5.88;;;5.90;99.90;;;;;;5138772;27;20035;-76
2024/01/02 06:14:38;;;;;;;10.23;5.00;;;5.90;99.90;;;;;;5123003;27;20465;-76
2024/01/02 06:17:03;;;;;;;13.32;5.47;;;5.90;99.90;;;;;;5129730;27;20160;-77
2024/01/02 06:19:32;;;;;;;13.93;5.63;;;5.90;99.90;;;;;;5106659;27;20027;-78
2024/01/02 06:21:58;;;;;;;14.73;5.40;;;5.90;99.90;;;;;;5139823;27;20050;-78
2024/01/02 06:24:23;;;;;;;10.57;6.47;;;5.90;99.90;;;;;;5137965;27;20043;-77
2024/01/02 06:26:49;;;;;;;9.77;5.55;;;5.90;99.90;;;;;;5150687;27;20121;-77
2024/01/02 06:29:15;;;;;;;13.73;6.70;;;5.80;99.90;;;;;;5138124;27;20046;-77
2024/01/02 06:31:41;;;;;;;12.82;5.45;;;6.00;99.90;;;;;;5164083;27;20046;-77
2024/01/02 06:34:08;;;;;;;10.27;5.40;;;6.00;99.90;;;;;;5153304;27;20047;-76
2024/01/02 06:36:34;;;;;;;12.23;5.28;;;6.00;99.90;;;;;;5124099;27;20396;-77
2024/01/02 06:38:59;;;;;;;9.63;5.47;;;5.90;99.90;;;;;;5121029;27;20118;-76
2024/01/02 06:41:27;;;;;;;9.32;5.10;;;5.90;99.90;;;;;;5154629;27;20090;-75
2024/01/02 06:43:52;;;;;;;8.82;5.00;;;6.00;99.90;;;;;;5123986;27;20043;-77
2024/01/02 06:46:18;;;;;;;6.85;4.43;;;5.90;99.90;;;;;;5142162;27;20035;-78
2024/01/02 06:48:43;;;;;;;10.25;5.57;;;6.00;99.90;;;;;;5139720;27;20088;-75
2024/01/02 06:51:09;;;;;;;7.22;4.25;;;6.00;99.90;;;;;;5138545;27;20047;-76
2024/01/02 06:53:35;;;;;;;7.97;4.95;;;6.10;99.90;;;;;;5120455;27;20066;-77
2024/01/02 06:56:00;;;;;;;8.02;5.10;;;5.90;99.90;;;;;;5148359;27;20072;-77
2024/01/02 06:58:26;;;;;;;10.30;5.05;;;6.00;99.90;;;;;;5120543;27;20027;-77
2024/01/02 07:00:51;;;;;;;12.75;5.32;;;6.80;99.90;;;;;;5148091;27;20109;-77
2024/01/02 07:03:18;;;;;;;8.63;4.80;;;6.00;99.90;;;;;;5148024;27;20078;-76
2024/01/02 07:05:44;;;;;;;8.30;4.10;;;5.90;99.90;;;;;;5107972;28;20465;-77
2024/01/02 07:08:10;;;;;;;7.30;3.95;;;5.90;99.90;;;;;;5137389;27;20059;-76
2024/01/02 07:10:35;;;;;;;14.30;5.35;;;6.10;99.90;;;;;;5125663;28;20430;-76
2024/01/02 07:13:01;;;;;;;9.55;5.20;;;6.10;99.90;;;;;;5147758;27;20034;-76
2024/01/02 07:15:27;;;;;;;11.02;4.50;;;5.70;99.90;;;;;;5156596;27;20035;-77
2024/01/02 07:17:53;;;;;;;8.80;4.78;;;6.00;99.90;;;;;;5130359;28;20039;-76
2024/01/02 07:20:23;;;;;;;7.65;4.85;;;6.00;99.90;;;;;;5137701;27;20035;-76
2024/01/02 07:22:50;;;;;;;11.45;5.45;;;6.00;99.90;;;;;;5135624;27;20190;-77
2024/01/02 07:25:16;;;;;;;11.98;5.78;;;6.00;99.90;;;;;;5120200;27;20046;-76
2024/01/02 07:27:42;;;;;;;9.48;4.85;;;6.00;99.90;;;;;;5156081;27;20120;-77
2024/01/02 07:30:08;;;;;;;13.52;6.05;;;6.10;99.90;;;;;;5123437;27;20047;-77
2024/01/02 07:32:34;;;;;;;8.70;5.10;;;6.00;99.90;;;;;;5138162;27;20553;-76
2024/01/02 07:35:01;;;;;;;14.35;6.47;;;6.10;99.90;;;;;;5137779;27;20051;-76
2024/01/02 07:37:26;;;;;;;11.07;5.80;;;6.20;99.90;;;;;;5100679;28;20035;-76
2024/01/02 07:39:53;;;;;;;9.38;4.75;;;6.00;99.90;;;;;;5149089;27;20050;-77
2024/01/02 07:42:21;;;;;;;9.27;4.38;;;6.10;99.90;;;;;;5154683;27;20087;-78
2024/01/02 07:44:46;;;;;;;7.15;4.22;;;6.20;99.90;;;;;;5117613;27;20087;-78
2024/01/02 07:47:12;;;;;;;7.45;4.90;;;6.30;99.90;;;;;;5122442;28;20093;-77
2024/01/02 07:49:38;;;;;;;11.27;5.18;;;6.80;99.90;;;;;;5140106;27;20515;-77
2024/01/02 07:52:04;;;;;;;9.15;5.20;;;6.30;99.90;;;;;;5144035;27;20432;-77
2024/01/02 07:54:30;;;;;;;9.90;5.35;;;6.30;99.90;;;;;;5132987;28;20039;-79
2024/01/02 07:56:56;;;;;;;13.15;5.90;;;6.20;99.90;;;;;;5124433;27;20460;-77
2024/01/02 07:59:25;;;;;;;11.65;6.35;;;6.30;99.90;;;;;;5109517;27;20050;-77
2024/01/02 08:01:51;;;;;;;10.43;4.90;;;6.40;99.90;;;;;;5139514;27;20047;-77
2024/01/02 08:04:16;;;;;;;10.10;5.63;;;6.30;99.90;;;;;;5137697;27;20111;-79
2024/01/02 08:06:42;;;;;;;8.27;4.82;;;6.30;99.90;;;;;;5124734;27;20043;-78
2024/01/02 08:09:08;;;;;;;8.43;4.20;;;6.30;99.90;;;;;;5140477;27;20036;-78
2024/01/02 08:11:33;;;;;;;11.27;5.18;;;6.40;99.90;;;;;;5119723;27;20035;-77
2024/01/02 08:14:02;;;;;;;13.02;5.70;;;6.40;99.90;;;;;;5139632;27;20095;-77
2024/01/02 08:16:28;;;;;;;10.25;5.25;;;6.70;99.90;;;;;;5156341;27;20046;-77
2024/01/02 08:18:54;;;;;;;11.60;6.00;;;6.60;99.90;;;;;;5149505;27;20047;-76
2024/01/02 08:21:19;;;;;;;12.73;6.57;;;6.50;99.90;;;;;;5151469;27;20027;-78
2024/01/02 08:23:47;;;;;;;15.82;7.03;;;6.60;99.90;;;;;;5147193;27;20167;-77
2024/01/02 08:26:13;;;;;;;18.95;6.47;;;6.70;99.90;;;;;;5130624;27;20058;-77
2024/01/02 08:28:39;;;;;;;23.25;8.18;;;6.70;99.90;;;;;;5145349;27;20402;-77
2024/01/02 08:31:05;;;;;;;21.73;7.90;;;6.80;99.90;;;;;;5131775;27;20130;-78
2024/01/02 08:33:30;;;;;;;12.80;7.07;;;6.60;99.90;;;;;;5122475;27;20066;-77
2024/01/02 08:35:56;;;;;;;24.08;9.45;;;7.10;99.90;;;;;;5107342;27;20408;-77
2024/01/02 08:38:22;;;;;;;17.83;8.07;;;6.90;99.90;;;;;;5148866;27;20074;-77
2024/01/02 08:40:48;;;;;;;34.30;10.13;;;6.70;99.90;;;;;;5132936;27;20480;-77
2024/01/02 08:43:16;;;;;;;25.20;9.15;;;6.80;99.90;;;;;;5147018;27;20535;-77
2024/01/02 08:45:42;;;;;;;33.03;10.05;;;6.80;99.90;;;;;;5123856;27;20465;-77
2024/01/02 08:48:14;;;;;;;19.52;8.45;;;6.80;99.90;;;;;;5109224;27;20043;-76
2024/01/02 08:50:42;;;;;;;23.92;9.05;;;6.90;99.90;;;;;;5147271;27;20039;-76
2024/01/02 08:53:12;;;;;;;15.15;7.45;;;7.10;99.90;;;;;;5147356;27;20043;-76
2024/01/02 08:55:39;;;;;;;24.23;9.13;;;7.10;99.90;;;;;;5119510;27;20050;-76
2024/01/02 08:58:05;;;;;;;30.77;11.00;;;7.10;99.90;;;;;;5121525;27;20035;-77
2024/01/02 09:00:31;;;;;;;31.75;10.05;;;7.30;99.90;;;;;;5118957;27;20042;-76
2024/01/02 09:02:59;;;;;;;22.63;9.32;;;7.40;99.90;;;;;;5125695;27;20062;-75
2024/01/02 09:05:26;;;;;;;20.38;9.07;;;7.20;99.90;;;;;;5115942;27;20082;-77
2024/01/02 09:07:52;;;;;;;43.85;12.27;;;7.40;99.90;;;;;;5148157;27;20047;-77
2024/01/02 09:10:18;;;;;;;23.58;8.90;;;7.40;99.90;;;;;;5119204;27;20035;-76
2024/01/02 09:12:47;;;;;;;26.17;8.60;;;7.50;99.90;;;;;;5148812;27;20164;-77
2024/01/02 09:15:13;;;;;;;;;;;7.60;99.90;;;;;;5103799;27;20050;-77
2024/01/02 09:17:38;;;;;;;31.67;8.48;;;7.70;99.90;;;;;;5111784;27;20345;-76
2024/01/02 09:20:05;;;;;;;38.30;9.38;;;7.80;99.90;;;;;;5104129;27;20075;-76
2024/01/02 09:22:31;;;;;;;42.80;9.80;;;7.90;99.90;;;;;;5120786;27;20043;-77
2024/01/02 09:24:59;;;;;;;41.85;8.20;;;7.90;99.90;;;;;;5125956;27;20130;-75
2024/01/02 09:27:28;;;;;;;37.00;6.13;;;7.90;99.90;;;;;;5134767;27;20055;-76
2024/01/02 09:29:55;;;;;;;30.05;5.40;;;8.00;99.90;;;;;;5159478;27;20054;-77
2024/01/02 09:32:21;;;;;;;26.65;5.32;;;8.10;99.90;;;;;;5159169;27;20081;-77
2024/01/02 09:34:46;;;;;;;27.48;5.97;;;8.20;99.90;;;;;;5136795;27;20047;-76
2024/01/02 09:37:12;;;;;;;43.10;5.90;;;8.30;99.90;;;;;;5139256;27;20507;-76
2024/01/02 09:39:38;;;;;;;36.65;5.18;;;8.50;99.90;;;;;;5166052;27;20106;-75
2024/01/02 09:42:19;;;;;;;41.05;5.63;;;8.60;99.90;;;;;;5128629;27;20481;-77
2024/01/02 09:44:47;;;;;;;36.28;5.75;;;8.70;99.90;;;;;;5119763;27;20109;-76
2024/01/02 09:47:53;;;;;;;34.60;6.00;;;8.50;99.90;;;;;;5126259;27;20062;-76
2024/01/02 09:50:31;;;;;;;39.13;5.15;;;8.80;99.90;;;;;;5116072;28;20039;-77
2024/01/02 09:53:05;;;;;;;36.28;5.25;;;8.80;99.90;;;;;;5121907;27;20459;-76
2024/01/02 09:55:43;;;;;;;33.55;5.38;;;8.90;99.90;;;;;;5127445;27;20036;-77
2024/01/02 09:58:29;;;;;;;34.65;5.53;;;9.00;99.90;;;;;;5124344;27;20047;-77
2024/01/02 10:01:04;;;;;;;34.88;6.82;;;9.00;99.90;;;;;;5127610;27;20062;-76
2024/01/02 10:03:58;;;;;;;28.88;5.20;;;9.00;99.90;;;;;;5114503;27;20040;-77
2024/01/02 10:07:02;;;;;;;33.17;6.35;;;9.10;99.90;;;;;;5112964;28;20390;-78
2024/01/02 10:09:40;;;;;;;41.53;5.57;;;9.10;99.90;;;;;;5127491;27;20405;-77
2024/01/02 10:12:47;;;;;;;44.92;5.93;;;9.20;99.90;;;;;;5119573;27;20048;-76
2024/01/02 10:15:26;;;;;;;38.33;5.47;;;9.20;99.90;;;;;;5048118;28;20110;-76
2024/01/02 10:18:07;;;;;;;;;;;9.10;99.90;;;;;;5112068;27;20055;-77
2024/01/02 10:20:59;;;;;;;30.05;5.13;;;9.30;99.90;;;;;;5098931;28;19927;-76
2024/01/02 10:23:44;;;;;;;34.45;4.47;;;9.30;99.90;;;;;;5117699;27;20107;-76
2024/01/02 10:26:11;;;;;;;33.72;5.32;;;9.30;99.90;;;;;;5115683;27;20123;-76
2024/01/02 10:28:41;;;;;;;27.52;5.18;;;9.20;99.90;;;;;;5125651;27;20043;-75
2024/01/02 10:31:56;;;;;;;38.17;6.03;;;9.40;99.90;;;;;;5114225;27;20047;-77
2024/01/02 10:34:37;;;;;;;33.47;5.38;;;9.30;99.90;;;;;;5053942;28;20043;-76
2024/01/02 10:37:06;;;;;;;24.70;4.25;;;9.20;99.90;;;;;;5054594;28;20045;-77
2024/01/02 10:39:50;;;;;;;31.88;5.55;;;9.60;99.90;;;;;;5102442;27;20051;-75
2024/01/02 10:42:36;;;;;;;29.38;5.78;;;10.00;99.90;;;;;;5128613;27;20063;-76
2024/01/02 10:45:33;;;;;;;27.52;4.78;;;9.30;99.90;;;;;;5118708;27;20079;-76
2024/01/02 10:48:32;;;;;;;32.00;4.97;;;9.40;99.90;;;;;;5130541;27;20108;-75
2024/01/02 10:51:13;;;;;;;36.30;4.28;;;9.50;99.90;;;;;;5135050;27;20043;-75
2024/01/02 10:53:56;;;;;;;45.90;6.95;;;9.70;99.90;;;;;;5139799;27;20043;-77
2024/01/02 10:56:32;;;;;;;37.25;4.90;;;9.50;99.90;;;;;;5136103;27;20043;-76
2024/01/02 10:59:16;;;;;;;36.88;5.90;;;9.50;99.90;;;;;;5125605;27;20054;-76
2024/01/02 11:01:46;;;;;;;28.17;5.15;;;9.80;99.90;;;;;;5133284;27;20050;-76
2024/01/02 11:04:38;;;;;;;33.85;5.65;;;9.70;99.90;;;;;;5131538;27;20046;-77
2024/01/02 11:07:10;;;;;;;41.15;6.50;;;9.60;99.90;;;;;;5130296;28;20070;-76
2024/01/02 11:09:41;;;;;;;36.58;5.97;;;9.90;99.90;;;;;;5141846;28;20046;-76
2024/01/02 11:12:09;;;;;;;38.70;5.47;;;10.00;99.90;;;;;;5121304;28;20039;-75
2024/01/02 11:14:39;;;;;;;35.65;5.75;;;9.80;99.90;;;;;;5115866;28;20047;-75
2024/01/02 11:17:07;;;;;;;42.38;5.93;;;9.70;99.90;;;;;;5128812;28;20047;-75
2024/01/02 11:19:43;;;;;;;35.63;5.15;;;9.80;99.90;;;;;;5121288;28;20047;-75
2024/01/02 11:22:22;;;;;;;35.20;5.03;;;9.80;99.90;;;;;;5105867;28;20048;-75
2024/01/02 11:24:59;;;;;;;32.57;5.10;;;10.00;99.90;;;;;;5103919;28;20057;-75
2024/01/02 11:27:25;;;;;;;43.10;5.65;;;9.90;99.90;;;;;;5125909;28;20377;-75
2024/01/02 11:29:56;;;;;;;29.90;5.78;;;10.10;99.90;;;;;;5128474;27;20397;-76
2024/01/02 11:32:51;;;;;;;35.92;5.88;;;10.00;99.90;;;;;;5116942;28;20120;-75
2024/01/02 11:35:20;;;;;;;41.38;6.45;;;9.90;99.90;;;;;;5134320;28;20059;-76
2024/01/02 11:38:07;;;;;;;36.90;6.28;;;10.20;99.90;;;;;;5134675;27;20122;-75
2024/01/02 11:40:54;;;;;;;44.60;8.85;;;10.10;99.90;;;;;;5136621;27;20050;-77
2024/01/02 11:43:32;;;;;;;46.65;10.20;;;10.00;99.90;;;;;;5114092;27;20058;-75
2024/01/02 11:45:59;;;;;;;51.65;12.38;;;10.30;99.90;;;;;;5133095;27;20061;-75
2024/01/02 11:48:40;;;;;;;56.72;12.40;;;10.30;99.90;;;;;;5135569;27;20120;-75
2024/01/02 11:51:24;;;;;;;50.97;13.55;;;10.00;99.90;;;;;;5134768;28;20148;-75
2024/01/02 11:54:07;;;;;;;65.75;15.75;;;10.20;99.90;;;;;;5134511;27;20044;-76
2024/01/02 11:56:36;;;;;;;52.78;15.68;;;10.30;99.90;;;;;;5132255;27;20111;-76
2024/01/02 11:59:20;;;;;;;61.00;17.17;;;10.30;99.90;;;;;;5134731;27;20031;-76
2024/01/02 12:01:58;;;;;;;64.10;16.15;;;10.10;99.90;;;;;;5136527;27;20063;-75
2024/01/02 12:04:54;;;;;;;70.70;16.57;;;10.20;99.90;;;;;;5134350;27;20039;-75
2024/01/02 12:07:26;;;;;;;53.40;14.93;;;10.20;99.90;;;;;;5124364;27;20039;-74
2024/01/02 12:09:53;;;;;;;57.55;15.10;;;10.30;99.90;;;;;;5126293;27;20502;-75
2024/01/02 12:12:38;;;;;;;73.30;14.63;;;10.20;99.90;;;;;;5120992;27;20040;-75
2024/01/02 12:15:24;;;;;;;53.55;12.73;;;10.30;99.90;;;;;;5133863;27;20180;-76
2024/01/02 12:17:58;;;;;;;65.13;14.32;;;10.30;99.90;;;;;;5133870;27;20074;-76
2024/01/02 12:20:40;;;;;;;53.80;12.73;;;10.30;99.90;;;;;;5143043;27;20087;-77
2024/01/02 12:23:07;;;;;;;55.75;11.73;;;10.20;99.90;;;;;;5129839;27;20041;-76
2024/01/02 12:25:36;;;;;;;48.15;10.77;;;10.80;99.90;;;;;;5142973;27;20045;-76
2024/01/02 12:28:03;;;;;;;46.65;9.85;;;10.30;99.90;;;;;;5137649;27;20040;-75
2024/01/02 12:30:36;;;;;;;61.40;10.70;;;10.00;99.90;;;;;;5135457;27;20047;-75
2024/01/02 12:33:34;;;;;;;51.55;10.80;;;10.20;99.90;;;;;;5134495;27;20031;-76
2024/01/02 12:36:26;;;;;;;62.08;12.13;;;10.20;99.90;;;;;;5131544;27;20107;-76
2024/01/02 12:38:53;;;;;;;50.70;9.77;;;10.20;99.90;;;;;;5134717;27;20044;-77
2024/01/02 12:41:27;;;;;;;54.20;9.00;;;10.20;99.90;;;;;;5134306;27;20040;-76
2024/01/02 12:43:56;;;;;;;47.40;8.93;;;10.20;99.90;;;;;;5144583;27;20039;-76
2024/01/02 12:46:32;;;;;;;52.78;8.35;;;10.20;99.90;;;;;;5108845;27;20038;-76
2024/01/02 12:49:15;;;;;;;51.03;9.35;;;10.20;99.90;;;;;;5148709;27;20047;-76
2024/01/02 12:51:45;;;;;;;56.13;7.63;;;10.00;99.90;;;;;;5114482;27;20130;-75
2024/01/02 12:54:13;;;;;;;34.95;7.03;;;10.20;99.90;;;;;;5145854;27;20099;-76
2024/01/02 12:56:42;;;;;;;47.20;7.38;;;10.00;99.90;;;;;;5157069;27;20045;-76